sensor_id;sensor_type;location;lat;lon;timestamp;temperature;humidity
18365;DHT22;9309;52.126;11.616;2023-07-22T00:00:05;15.70;73.30
18365;DHT22;9309;52.126;11.616;2023-07-22T00:02:37;15.60;73.50
18365;DHT22;9309;52.126;11.616;2023-07-22T00:05:04;15.50;73.90
18365;DHT22;9309;52.126;11.616;2023-07-22T00:07:31;15.60;73.50
18365;DHT22;9309;52.126;11.616;2023-07-22T00:09:59;15.50;74.40
18365;DHT22;9309;52.126;11.616;2023-07-22T00:12:26;15.30;74.80
18365;DHT22;9309;52.126;11.616;2023-07-22T00:14:53;15.20;75.80
18365;DHT22;9309;52.126;11.616;2023-07-22T00:17:21;15.20;75.70
18365;DHT22;9309;52.126;11.616;2023-07-22T00:19:48;15.20;75.70
18365;DHT22;9309;52.126;11.616;2023-07-22T00:22:14;15.30;75.40
18365;DHT22;9309;52.126;11.616;2023-07-22T00:24:41;15.30;75.10
18365;DHT22;9309;52.126;11.616;2023-07-22T00:27:08;15.30;74.70
18365;DHT22;9309;52.126;11.616;2023-07-22T00:29:35;15.30;75.60
18365;DHT22;9309;52.126;11.616;2023-07-22T00:32:02;15.40;74.80
18365;DHT22;9309;52.126;11.616;2023-07-22T00:34:30;15.30;75.10
18365;DHT22;9309;52.126;11.616;2023-07-22T00:36:57;15.30;75.30
18365;DHT22;9309;52.126;11.616;2023-07-22T00:39:24;15.30;75.10
18365;DHT22;9309;52.126;11.616;2023-07-22T00:41:51;15.30;75.30
18365;DHT22;9309;52.126;11.616;2023-07-22T00:44:18;15.30;75.40
18365;DHT22;9309;52.126;11.616;2023-07-22T00:46:45;15.10;76.20
18365;DHT22;9309;52.126;11.616;2023-07-22T00:49:14;15.10;76.50
18365;DHT22;9309;52.126;11.616;2023-07-22T00:51:43;15.00;76.60
18365;DHT22;9309;52.126;11.616;2023-07-22T00:54:10;15.10;76.20
18365;DHT22;9309;52.126;11.616;2023-07-22T00:56:39;15.10;76.30
18365;DHT22;9309;52.126;11.616;2023-07-22T00:59:07;15.10;76.60
18365;DHT22;9309;52.126;11.616;2023-07-22T01:01:34;15.00;76.60
18365;DHT22;9309;52.126;11.616;2023-07-22T01:04:01;15.00;76.40
18365;DHT22;9309;52.126;11.616;2023-07-22T01:06:29;14.90;76.70
18365;DHT22;9309;52.126;11.616;2023-07-22T01:08:58;14.80;76.90
18365;DHT22;9309;52.126;11.616;2023-07-22T01:11:25;14.90;76.50
18365;DHT22;9309;52.126;11.616;2023-07-22T01:13:52;14.90;76.50
18365;DHT22;9309;52.126;11.616;2023-07-22T01:16:24;14.90;76.30
18365;DHT22;9309;52.126;11.616;2023-07-22T01:18:52;14.70;77.10
18365;DHT22;9309;52.126;11.616;2023-07-22T01:21:20;14.70;77.00
18365;DHT22;9309;52.126;11.616;2023-07-22T01:23:50;14.70;76.70
18365;DHT22;9309;52.126;11.616;2023-07-22T01:26:17;14.60;77.10
18365;DHT22;9309;52.126;11.616;2023-07-22T01:28:44;14.60;76.80
18365;DHT22;9309;52.126;11.616;2023-07-22T01:31:11;14.70;76.90
18365;DHT22;9309;52.126;11.616;2023-07-22T01:33:38;14.60;77.10
18365;DHT22;9309;52.126;11.616;2023-07-22T01:36:05;14.50;77.30
18365;DHT22;9309;52.126;11.616;2023-07-22T01:38:33;14.50;77.50
18365;DHT22;9309;52.126;11.616;2023-07-22T01:41:01;14.30;77.90
18365;DHT22;9309;52.126;11.616;2023-07-22T01:43:28;14.20;78.70
18365;DHT22;9309;52.126;11.616;2023-07-22T01:45:55;14.30;78.10
18365;DHT22;9309;52.126;11.616;2023-07-22T01:48:21;14.30;77.60
18365;DHT22;9309;52.126;11.616;2023-07-22T01:50:49;14.30;77.70
18365;DHT22;9309;52.126;11.616;2023-07-22T01:53:16;14.30;77.60
18365;DHT22;9309;52.126;11.616;2023-07-22T01:55:43;14.30;77.70
18365;DHT22;9309;52.126;11.616;2023-07-22T01:58:11;14.30;77.70
18365;DHT22;9309;52.126;11.616;2023-07-22T02:00:38;14.20;78.10
18365;DHT22;9309;52.126;11.616;2023-07-22T02:03:05;14.20;78.10
18365;DHT22;9309;52.126;11.616;2023-07-22T02:05:31;14.10;78.40
18365;DHT22;9309;52.126;11.616;2023-07-22T02:07:58;14.20;78.20
18365;DHT22;9309;52.126;11.616;2023-07-22T02:10:25;14.10;78.40
18365;DHT22;9309;52.126;11.616;2023-07-22T02:12:52;14.20;77.90
18365;DHT22;9309;52.126;11.616;2023-07-22T02:15:20;14.30;78.00
18365;DHT22;9309;52.126;11.616;2023-07-22T02:17:50;14.30;77.60
18365;DHT22;9309;52.126;11.616;2023-07-22T02:20:17;14.30;77.70
18365;DHT22;9309;52.126;11.616;2023-07-22T02:22:43;14.20;78.10
18365;DHT22;9309;52.126;11.616;2023-07-22T02:25:10;14.20;77.90
18365;DHT22;9309;52.126;11.616;2023-07-22T02:27:37;14.20;77.70
18365;DHT22;9309;52.126;11.616;2023-07-22T02:30:07;14.20;77.60
18365;DHT22;9309;52.126;11.616;2023-07-22T02:32:38;14.20;77.90
18365;DHT22;9309;52.126;11.616;2023-07-22T02:35:06;14.20;77.60
18365;DHT22;9309;52.126;11.616;2023-07-22T02:37:33;14.10;77.90
18365;DHT22;9309;52.126;11.616;2023-07-22T02:40:00;14.20;77.50
18365;DHT22;9309;52.126;11.616;2023-07-22T02:42:35;14.10;77.70
18365;DHT22;9309;52.126;11.616;2023-07-22T02:45:02;14.10;77.90
18365;DHT22;9309;52.126;11.616;2023-07-22T02:47:29;14.00;77.90
18365;DHT22;9309;52.126;11.616;2023-07-22T02:49:57;14.00;78.30
18365;DHT22;9309;52.126;11.616;2023-07-22T02:52:25;14.00;78.30
18365;DHT22;9309;52.126;11.616;2023-07-22T02:55:06;13.90;78.40
18365;DHT22;9309;52.126;11.616;2023-07-22T02:57:33;13.80;78.70
18365;DHT22;9309;52.126;11.616;2023-07-22T03:00:01;13.80;78.80
18365;DHT22;9309;52.126;11.616;2023-07-22T03:02:32;13.80;78.80
18365;DHT22;9309;52.126;11.616;2023-07-22T03:05:00;13.70;78.80
18365;DHT22;9309;52.126;11.616;2023-07-22T03:07:28;13.70;78.80
18365;DHT22;9309;52.126;11.616;2023-07-22T03:09:54;13.80;78.70
18365;DHT22;9309;52.126;11.616;2023-07-22T03:12:21;13.80;78.70
18365;DHT22;9309;52.126;11.616;2023-07-22T03:14:48;13.70;78.60
18365;DHT22;9309;52.126;11.616;2023-07-22T03:17:15;13.80;78.80
18365;DHT22;9309;52.126;11.616;2023-07-22T03:19:42;13.60;78.90
18365;DHT22;9309;52.126;11.616;2023-07-22T03:22:13;13.60;79.20
18365;DHT22;9309;52.126;11.616;2023-07-22T03:24:41;13.60;79.10
18365;DHT22;9309;52.126;11.616;2023-07-22T03:27:08;13.50;79.40
18365;DHT22;9309;52.126;11.616;2023-07-22T03:29:35;13.60;79.60
18365;DHT22;9309;52.126;11.616;2023-07-22T03:32:02;13.60;79.30
18365;DHT22;9309;52.126;11.616;2023-07-22T03:34:29;13.50;79.40
18365;DHT22;9309;52.126;11.616;2023-07-22T03:36:56;13.50;79.10
18365;DHT22;9309;52.126;11.616;2023-07-22T03:39:25;13.40;79.70
18365;DHT22;9309;52.126;11.616;2023-07-22T03:41:52;13.50;79.50
18365;DHT22;9309;52.126;11.616;2023-07-22T03:44:18;13.40;79.50
18365;DHT22;9309;52.126;11.616;2023-07-22T03:46:45;13.50;79.40
18365;DHT22;9309;52.126;11.616;2023-07-22T03:49:12;13.50;79.20
18365;DHT22;9309;52.126;11.616;2023-07-22T03:51:39;13.50;79.20
18365;DHT22;9309;52.126;11.616;2023-07-22T03:54:05;13.50;79.10
18365;DHT22;9309;52.126;11.616;2023-07-22T03:56:34;13.40;79.70
18365;DHT22;9309;52.126;11.616;2023-07-22T03:59:01;13.40;79.50
18365;DHT22;9309;52.126;11.616;2023-07-22T04:01:27;13.50;79.40
18365;DHT22;9309;52.126;11.616;2023-07-22T04:03:54;13.60;78.90
18365;DHT22;9309;52.126;11.616;2023-07-22T04:06:21;13.70;78.40
18365;DHT22;9309;52.126;11.616;2023-07-22T04:08:49;13.70;78.70
18365;DHT22;9309;52.126;11.616;2023-07-22T04:11:15;13.70;78.40
18365;DHT22;9309;52.126;11.616;2023-07-22T04:13:44;13.70;78.40
18365;DHT22;9309;52.126;11.616;2023-07-22T04:16:10;13.60;79.20
18365;DHT22;9309;52.126;11.616;2023-07-22T04:18:37;13.50;79.40
18365;DHT22;9309;52.126;11.616;2023-07-22T04:21:04;13.70;78.80
18365;DHT22;9309;52.126;11.616;2023-07-22T04:23:31;13.70;78.00
18365;DHT22;9309;52.126;11.616;2023-07-22T04:26:00;13.60;78.70
18365;DHT22;9309;52.126;11.616;2023-07-22T04:28:30;13.50;79.00
18365;DHT22;9309;52.126;11.616;2023-07-22T04:30:58;13.50;79.20
18365;DHT22;9309;52.126;11.616;2023-07-22T04:33:26;13.50;79.40
18365;DHT22;9309;52.126;11.616;2023-07-22T04:35:55;13.50;79.20
18365;DHT22;9309;52.126;11.616;2023-07-22T04:38:22;13.50;79.00
18365;DHT22;9309;52.126;11.616;2023-07-22T04:40:48;13.60;78.90
18365;DHT22;9309;52.126;11.616;2023-07-22T04:43:15;13.80;78.20
18365;DHT22;9309;52.126;11.616;2023-07-22T04:45:44;13.80;78.30
18365;DHT22;9309;52.126;11.616;2023-07-22T04:48:15;13.80;78.20
18365;DHT22;9309;52.126;11.616;2023-07-22T04:50:42;13.70;78.80
18365;DHT22;9309;52.126;11.616;2023-07-22T04:53:10;13.70;78.70
18365;DHT22;9309;52.126;11.616;2023-07-22T04:55:38;13.80;79.10
18365;DHT22;9309;52.126;11.616;2023-07-22T04:58:05;13.90;78.20
18365;DHT22;9309;52.126;11.616;2023-07-22T05:00:32;13.90;78.50
18365;DHT22;9309;52.126;11.616;2023-07-22T05:02:59;14.00;78.00
18365;DHT22;9309;52.126;11.616;2023-07-22T05:05:27;14.00;78.10
18365;DHT22;9309;52.126;11.616;2023-07-22T05:07:54;14.10;77.70
18365;DHT22;9309;52.126;11.616;2023-07-22T05:10:22;14.00;77.80
18365;DHT22;9309;52.126;11.616;2023-07-22T05:12:49;14.00;77.80
18365;DHT22;9309;52.126;11.616;2023-07-22T05:15:16;14.20;77.40
18365;DHT22;9309;52.126;11.616;2023-07-22T05:17:42;14.30;77.20
18365;DHT22;9309;52.126;11.616;2023-07-22T05:20:10;14.30;77.00
18365;DHT22;9309;52.126;11.616;2023-07-22T05:22:40;14.30;77.10
18365;DHT22;9309;52.126;11.616;2023-07-22T05:25:08;14.30;77.20
18365;DHT22;9309;52.126;11.616;2023-07-22T05:27:36;14.40;76.60
18365;DHT22;9309;52.126;11.616;2023-07-22T05:30:06;14.40;76.50
18365;DHT22;9309;52.126;11.616;2023-07-22T05:32:35;14.60;75.80
18365;DHT22;9309;52.126;11.616;2023-07-22T05:35:02;14.70;74.90
18365;DHT22;9309;52.126;11.616;2023-07-22T05:37:30;14.80;74.20
18365;DHT22;9309;52.126;11.616;2023-07-22T05:39:59;14.90;74.00
18365;DHT22;9309;52.126;11.616;2023-07-22T05:42:25;14.80;73.70
18365;DHT22;9309;52.126;11.616;2023-07-22T05:44:54;14.80;73.40
18365;DHT22;9309;52.126;11.616;2023-07-22T05:47:21;14.90;73.40
18365;DHT22;9309;52.126;11.616;2023-07-22T05:49:48;15.00;72.60
18365;DHT22;9309;52.126;11.616;2023-07-22T05:52:15;15.00;72.50
18365;DHT22;9309;52.126;11.616;2023-07-22T05:54:42;15.10;72.50
18365;DHT22;9309;52.126;11.616;2023-07-22T05:57:10;15.20;71.50
18365;DHT22;9309;52.126;11.616;2023-07-22T05:59:36;15.40;71.00
18365;DHT22;9309;52.126;11.616;2023-07-22T06:02:05;15.50;70.60
18365;DHT22;9309;52.126;11.616;2023-07-22T06:04:32;15.50;68.90
18365;DHT22;9309;52.126;11.616;2023-07-22T06:06:59;15.60;68.90
18365;DHT22;9309;52.126;11.616;2023-07-22T06:09:25;15.60;67.70
18365;DHT22;9309;52.126;11.616;2023-07-22T06:11:52;15.70;67.90
18365;DHT22;9309;52.126;11.616;2023-07-22T06:14:20;15.80;67.50
18365;DHT22;9309;52.126;11.616;2023-07-22T06:16:47;15.80;67.30
18365;DHT22;9309;52.126;11.616;2023-07-22T06:19:14;15.80;67.00
18365;DHT22;9309;52.126;11.616;2023-07-22T06:21:41;15.80;67.30
18365;DHT22;9309;52.126;11.616;2023-07-22T06:24:08;16.00;66.30
18365;DHT22;9309;52.126;11.616;2023-07-22T06:26:35;16.00;66.00
18365;DHT22;9309;52.126;11.616;2023-07-22T06:29:02;16.00;65.70
18365;DHT22;9309;52.126;11.616;2023-07-22T06:31:30;16.10;65.60
18365;DHT22;9309;52.126;11.616;2023-07-22T06:33:57;16.10;64.90
18365;DHT22;9309;52.126;11.616;2023-07-22T06:36:25;16.10;64.00
18365;DHT22;9309;52.126;11.616;2023-07-22T06:38:51;16.10;64.20
18365;DHT22;9309;52.126;11.616;2023-07-22T06:41:20;16.00;64.50
18365;DHT22;9309;52.126;11.616;2023-07-22T06:43:49;16.10;64.90
18365;DHT22;9309;52.126;11.616;2023-07-22T06:46:16;16.20;64.00
18365;DHT22;9309;52.126;11.616;2023-07-22T06:48:44;16.40;63.30
18365;DHT22;9309;52.126;11.616;2023-07-22T06:51:11;16.40;63.30
18365;DHT22;9309;52.126;11.616;2023-07-22T06:53:38;16.40;63.20
18365;DHT22;9309;52.126;11.616;2023-07-22T06:56:05;16.50;63.10
18365;DHT22;9309;52.126;11.616;2023-07-22T06:58:31;16.60;61.70
18365;DHT22;9309;52.126;11.616;2023-07-22T07:00:58;16.60;61.90
18365;DHT22;9309;52.126;11.616;2023-07-22T07:03:25;16.70;61.40
18365;DHT22;9309;52.126;11.616;2023-07-22T07:05:54;16.70;60.40
18365;DHT22;9309;52.126;11.616;2023-07-22T07:08:21;16.80;61.10
18365;DHT22;9309;52.126;11.616;2023-07-22T07:10:48;16.90;60.40
18365;DHT22;9309;52.126;11.616;2023-07-22T07:13:14;16.90;60.30
18365;DHT22;9309;52.126;11.616;2023-07-22T07:15:41;17.10;59.40
18365;DHT22;9309;52.126;11.616;2023-07-22T07:18:08;17.20;58.40
18365;DHT22;9309;52.126;11.616;2023-07-22T07:20:34;17.20;58.50
18365;DHT22;9309;52.126;11.616;2023-07-22T07:23:02;17.30;58.60
18365;DHT22;9309;52.126;11.616;2023-07-22T07:25:29;17.40;57.50
18365;DHT22;9309;52.126;11.616;2023-07-22T07:27:56;17.40;57.40
18365;DHT22;9309;52.126;11.616;2023-07-22T07:30:23;17.50;57.30
18365;DHT22;9309;52.126;11.616;2023-07-22T07:32:50;17.80;56.30
18365;DHT22;9309;52.126;11.616;2023-07-22T07:35:16;17.90;56.20
18365;DHT22;9309;52.126;11.616;2023-07-22T07:37:43;18.10;56.00
18365;DHT22;9309;52.126;11.616;2023-07-22T07:40:12;18.20;55.70
18365;DHT22;9309;52.126;11.616;2023-07-22T07:42:39;18.50;55.00
18365;DHT22;9309;52.126;11.616;2023-07-22T07:45:07;18.40;54.40
18365;DHT22;9309;52.126;11.616;2023-07-22T07:47:34;18.40;54.80
18365;DHT22;9309;52.126;11.616;2023-07-22T07:50:01;18.40;55.70
18365;DHT22;9309;52.126;11.616;2023-07-22T07:52:28;18.30;54.60
18365;DHT22;9309;52.126;11.616;2023-07-22T07:54:55;18.40;54.40
18365;DHT22;9309;52.126;11.616;2023-07-22T07:57:23;18.40;53.80
18365;DHT22;9309;52.126;11.616;2023-07-22T07:59:50;18.40;54.40
18365;DHT22;9309;52.126;11.616;2023-07-22T08:02:16;18.50;54.50
18365;DHT22;9309;52.126;11.616;2023-07-22T08:04:43;18.70;53.70
18365;DHT22;9309;52.126;11.616;2023-07-22T08:07:10;18.70;54.10
18365;DHT22;9309;52.126;11.616;2023-07-22T08:09:41;18.80;53.30
18365;DHT22;9309;52.126;11.616;2023-07-22T08:12:08;18.70;53.30
18365;DHT22;9309;52.126;11.616;2023-07-22T08:14:37;18.70;53.60
18365;DHT22;9309;52.126;11.616;2023-07-22T08:17:03;18.90;53.10
18365;DHT22;9309;52.126;11.616;2023-07-22T08:19:30;18.70;53.10
18365;DHT22;9309;52.126;11.616;2023-07-22T08:21:57;18.70;53.50
18365;DHT22;9309;52.126;11.616;2023-07-22T08:24:24;18.70;52.90
18365;DHT22;9309;52.126;11.616;2023-07-22T08:26:50;18.50;52.90
18365;DHT22;9309;52.126;11.616;2023-07-22T08:29:17;18.50;52.90
18365;DHT22;9309;52.126;11.616;2023-07-22T08:31:45;18.60;52.00
18365;DHT22;9309;52.126;11.616;2023-07-22T08:34:12;18.60;52.50
18365;DHT22;9309;52.126;11.616;2023-07-22T08:36:39;18.70;52.50
18365;DHT22;9309;52.126;11.616;2023-07-22T08:39:06;18.80;51.80
18365;DHT22;9309;52.126;11.616;2023-07-22T08:41:33;19.20;50.60
18365;DHT22;9309;52.126;11.616;2023-07-22T08:44:02;19.30;50.20
18365;DHT22;9309;52.126;11.616;2023-07-22T08:46:33;19.60;49.90
18365;DHT22;9309;52.126;11.616;2023-07-22T08:49:01;19.60;49.70
18365;DHT22;9309;52.126;11.616;2023-07-22T08:51:31;19.60;49.60
18365;DHT22;9309;52.126;11.616;2023-07-22T08:53:59;19.90;49.40
18365;DHT22;9309;52.126;11.616;2023-07-22T08:56:28;20.10;48.80
18365;DHT22;9309;52.126;11.616;2023-07-22T08:58:56;19.90;48.80
18365;DHT22;9309;52.126;11.616;2023-07-22T09:01:23;19.60;50.10
18365;DHT22;9309;52.126;11.616;2023-07-22T09:03:51;19.60;50.30
18365;DHT22;9309;52.126;11.616;2023-07-22T09:06:21;19.60;49.80
18365;DHT22;9309;52.126;11.616;2023-07-22T09:08:48;19.70;49.80
18365;DHT22;9309;52.126;11.616;2023-07-22T09:11:15;19.60;49.50
18365;DHT22;9309;52.126;11.616;2023-07-22T09:13:44;19.30;50.40
18365;DHT22;9309;52.126;11.616;2023-07-22T09:16:11;19.20;51.40
18365;DHT22;9309;52.126;11.616;2023-07-22T09:18:39;19.20;51.20
18365;DHT22;9309;52.126;11.616;2023-07-22T09:21:06;19.50;50.50
18365;DHT22;9309;52.126;11.616;2023-07-22T09:23:34;19.80;49.60
18365;DHT22;9309;52.126;11.616;2023-07-22T09:26:08;20.20;49.40
18365;DHT22;9309;52.126;11.616;2023-07-22T09:28:48;20.10;49.50
18365;DHT22;9309;52.126;11.616;2023-07-22T09:31:15;19.70;50.20
18365;DHT22;9309;52.126;11.616;2023-07-22T09:33:42;19.50;50.10
18365;DHT22;9309;52.126;11.616;2023-07-22T09:36:09;19.50;50.60
18365;DHT22;9309;52.126;11.616;2023-07-22T09:38:38;19.60;50.30
18365;DHT22;9309;52.126;11.616;2023-07-22T09:41:05;19.90;49.80
18365;DHT22;9309;52.126;11.616;2023-07-22T09:43:36;19.80;50.20
18365;DHT22;9309;52.126;11.616;2023-07-22T09:46:07;19.80;49.80
18365;DHT22;9309;52.126;11.616;2023-07-22T09:48:41;19.80;49.70
18365;DHT22;9309;52.126;11.616;2023-07-22T09:51:12;19.80;49.90
18365;DHT22;9309;52.126;11.616;2023-07-22T09:53:45;19.90;49.50
18365;DHT22;9309;52.126;11.616;2023-07-22T09:56:12;20.30;48.50
18365;DHT22;9309;52.126;11.616;2023-07-22T09:58:40;20.90;47.80
18365;DHT22;9309;52.126;11.616;2023-07-22T10:01:07;21.10;47.20
18365;DHT22;9309;52.126;11.616;2023-07-22T10:03:39;20.70;47.00
18365;DHT22;9309;52.126;11.616;2023-07-22T10:06:07;20.30;49.00
18365;DHT22;9309;52.126;11.616;2023-07-22T10:08:34;20.00;49.00
18365;DHT22;9309;52.126;11.616;2023-07-22T10:11:05;20.20;49.20
18365;DHT22;9309;52.126;11.616;2023-07-22T10:13:35;20.20;48.70
18365;DHT22;9309;52.126;11.616;2023-07-22T10:16:03;20.00;48.70
18365;DHT22;9309;52.126;11.616;2023-07-22T10:18:32;20.00;49.40
18365;DHT22;9309;52.126;11.616;2023-07-22T10:21:00;20.20;49.70
18365;DHT22;9309;52.126;11.616;2023-07-22T10:23:29;20.40;48.90
18365;DHT22;9309;52.126;11.616;2023-07-22T10:25:57;20.70;48.20
18365;DHT22;9309;52.126;11.616;2023-07-22T10:28:26;20.70;48.40
18365;DHT22;9309;52.126;11.616;2023-07-22T10:30:53;20.60;48.50
18365;DHT22;9309;52.126;11.616;2023-07-22T10:33:19;20.70;48.30
18365;DHT22;9309;52.126;11.616;2023-07-22T10:36:03;21.00;47.60
18365;DHT22;9309;52.126;11.616;2023-07-22T10:38:30;21.50;47.20
18365;DHT22;9309;52.126;11.616;2023-07-22T10:40:57;22.00;45.20
18365;DHT22;9309;52.126;11.616;2023-07-22T10:43:27;22.00;44.50
18365;DHT22;9309;52.126;11.616;2023-07-22T10:45:57;21.50;45.90
18365;DHT22;9309;52.126;11.616;2023-07-22T10:48:26;21.40;47.10
18365;DHT22;9309;52.126;11.616;2023-07-22T10:51:00;21.20;46.90
18365;DHT22;9309;52.126;11.616;2023-07-22T10:53:31;21.20;47.80
18365;DHT22;9309;52.126;11.616;2023-07-22T10:56:12;22.50;44.20
18365;DHT22;9309;52.126;11.616;2023-07-22T10:58:58;22.20;44.00
18365;DHT22;9309;52.126;11.616;2023-07-22T11:01:37;21.60;45.20
18365;DHT22;9309;52.126;11.616;2023-07-22T11:04:12;21.70;45.30
18365;DHT22;9309;52.126;11.616;2023-07-22T11:06:52;22.30;44.30
18365;DHT22;9309;52.126;11.616;2023-07-22T11:09:36;22.70;44.00
18365;DHT22;9309;52.126;11.616;2023-07-22T11:12:05;23.30;42.90
18365;DHT22;9309;52.126;11.616;2023-07-22T11:14:35;22.80;42.20
18365;DHT22;9309;52.126;11.616;2023-07-22T11:17:05;22.90;42.10
18365;DHT22;9309;52.126;11.616;2023-07-22T11:19:33;23.40;41.20
18365;DHT22;9309;52.126;11.616;2023-07-22T11:22:01;24.50;39.60
18365;DHT22;9309;52.126;11.616;2023-07-22T11:24:28;24.80;39.60
18365;DHT22;9309;52.126;11.616;2023-07-22T11:26:55;25.70;37.40
18365;DHT22;9309;52.126;11.616;2023-07-22T11:29:22;26.20;36.90
18365;DHT22;9309;52.126;11.616;2023-07-22T11:31:51;26.10;37.00
18365;DHT22;9309;52.126;11.616;2023-07-22T11:34:19;26.60;35.80
18365;DHT22;9309;52.126;11.616;2023-07-22T11:36:47;26.50;35.50
18365;DHT22;9309;52.126;11.616;2023-07-22T11:39:15;25.10;37.60
18365;DHT22;9309;52.126;11.616;2023-07-22T11:41:43;25.20;37.50
18365;DHT22;9309;52.126;11.616;2023-07-22T11:44:11;23.90;39.70
18365;DHT22;9309;52.126;11.616;2023-07-22T11:46:47;22.80;41.70
18365;DHT22;9309;52.126;11.616;2023-07-22T11:49:23;22.70;42.40
18365;DHT22;9309;52.126;11.616;2023-07-22T11:51:51;24.40;39.30
18365;DHT22;9309;52.126;11.616;2023-07-22T11:54:20;26.60;36.00
18365;DHT22;9309;52.126;11.616;2023-07-22T11:56:47;28.00;33.70
18365;DHT22;9309;52.126;11.616;2023-07-22T11:59:14;27.70;33.90
18365;DHT22;9309;52.126;11.616;2023-07-22T12:01:43;28.30;32.50
18365;DHT22;9309;52.126;11.616;2023-07-22T12:04:11;27.30;33.40
18365;DHT22;9309;52.126;11.616;2023-07-22T12:06:40;26.40;34.80
18365;DHT22;9309;52.126;11.616;2023-07-22T12:09:07;25.50;36.40
18365;DHT22;9309;52.126;11.616;2023-07-22T12:11:36;24.30;38.40
18365;DHT22;9309;52.126;11.616;2023-07-22T12:14:10;23.80;39.70
18365;DHT22;9309;52.126;11.616;2023-07-22T12:16:38;23.10;41.00
18365;DHT22;9309;52.126;11.616;2023-07-22T12:19:07;22.60;41.70
18365;DHT22;9309;52.126;11.616;2023-07-22T12:21:35;22.60;42.10
18365;DHT22;9309;52.126;11.616;2023-07-22T12:24:04;22.90;41.50
18365;DHT22;9309;52.126;11.616;2023-07-22T12:26:30;23.00;41.60
18365;DHT22;9309;52.126;11.616;2023-07-22T12:28:57;23.10;41.10
18365;DHT22;9309;52.126;11.616;2023-07-22T12:31:25;23.10;40.80
18365;DHT22;9309;52.126;11.616;2023-07-22T12:33:52;22.70;41.70
18365;DHT22;9309;52.126;11.616;2023-07-22T12:36:18;22.50;42.30
18365;DHT22;9309;52.126;11.616;2023-07-22T12:38:45;23.00;41.60
18365;DHT22;9309;52.126;11.616;2023-07-22T12:41:13;23.30;40.80
18365;DHT22;9309;52.126;11.616;2023-07-22T12:43:40;23.10;40.80
18365;DHT22;9309;52.126;11.616;2023-07-22T12:46:07;23.10;41.10
18365;DHT22;9309;52.126;11.616;2023-07-22T12:48:33;23.60;40.30
18365;DHT22;9309;52.126;11.616;2023-07-22T12:51:00;24.50;38.20
18365;DHT22;9309;52.126;11.616;2023-07-22T12:53:28;26.00;36.50
18365;DHT22;9309;52.126;11.616;2023-07-22T12:55:55;26.80;35.00
18365;DHT22;9309;52.126;11.616;2023-07-22T12:58:23;26.90;34.40
18365;DHT22;9309;52.126;11.616;2023-07-22T13:00:49;27.80;33.20
18365;DHT22;9309;52.126;11.616;2023-07-22T13:03:16;27.70;33.10
18365;DHT22;9309;52.126;11.616;2023-07-22T13:05:43;26.80;34.50
18365;DHT22;9309;52.126;11.616;2023-07-22T13:08:10;25.40;36.40
18365;DHT22;9309;52.126;11.616;2023-07-22T13:10:36;25.00;37.40
18365;DHT22;9309;52.126;11.616;2023-07-22T13:13:05;24.50;37.80
18365;DHT22;9309;52.126;11.616;2023-07-22T13:15:33;23.60;39.20
18365;DHT22;9309;52.126;11.616;2023-07-22T13:18:00;23.30;39.70
18365;DHT22;9309;52.126;11.616;2023-07-22T13:20:28;23.00;40.00
18365;DHT22;9309;52.126;11.616;2023-07-22T13:22:55;22.80;40.10
18365;DHT22;9309;52.126;11.616;2023-07-22T13:25:23;22.80;40.00
18365;DHT22;9309;52.126;11.616;2023-07-22T13:27:50;22.90;39.30
18365;DHT22;9309;52.126;11.616;2023-07-22T13:30:15;22.70;39.80
18365;DHT22;9309;52.126;11.616;2023-07-22T13:32:44;22.60;40.50
18365;DHT22;9309;52.126;11.616;2023-07-22T13:35:11;22.50;41.30
18365;DHT22;9309;52.126;11.616;2023-07-22T13:37:38;22.80;40.80
18365;DHT22;9309;52.126;11.616;2023-07-22T13:40:06;24.20;38.10
18365;DHT22;9309;52.126;11.616;2023-07-22T13:42:36;24.70;38.20
18365;DHT22;9309;52.126;11.616;2023-07-22T13:45:04;25.00;38.10
18365;DHT22;9309;52.126;11.616;2023-07-22T13:47:31;25.30;37.50
18365;DHT22;9309;52.126;11.616;2023-07-22T13:49:59;25.30;37.40
18365;DHT22;9309;52.126;11.616;2023-07-22T13:52:26;24.70;38.40
18365;DHT22;9309;52.126;11.616;2023-07-22T13:54:53;24.90;38.10
18365;DHT22;9309;52.126;11.616;2023-07-22T13:57:19;25.10;37.40
18365;DHT22;9309;52.126;11.616;2023-07-22T13:59:46;24.90;38.70
18365;DHT22;9309;52.126;11.616;2023-07-22T14:02:13;24.80;37.60
18365;DHT22;9309;52.126;11.616;2023-07-22T14:04:40;24.60;38.40
18365;DHT22;9309;52.126;11.616;2023-07-22T14:07:08;24.90;37.30
18365;DHT22;9309;52.126;11.616;2023-07-22T14:09:35;25.10;37.20
18365;DHT22;9309;52.126;11.616;2023-07-22T14:12:02;24.90;36.50
18365;DHT22;9309;52.126;11.616;2023-07-22T14:14:28;24.70;36.20
18365;DHT22;9309;52.126;11.616;2023-07-22T14:16:55;24.40;36.50
18365;DHT22;9309;52.126;11.616;2023-07-22T14:19:23;24.40;36.90
18365;DHT22;9309;52.126;11.616;2023-07-22T14:21:50;24.90;36.20
18365;DHT22;9309;52.126;11.616;2023-07-22T14:24:19;25.70;35.60
18365;DHT22;9309;52.126;11.616;2023-07-22T14:26:45;26.20;35.00
18365;DHT22;9309;52.126;11.616;2023-07-22T14:29:13;26.00;35.60
18365;DHT22;9309;52.126;11.616;2023-07-22T14:31:41;25.80;35.40
18365;DHT22;9309;52.126;11.616;2023-07-22T14:34:08;25.50;35.60
18365;DHT22;9309;52.126;11.616;2023-07-22T14:36:35;25.20;35.20
18365;DHT22;9309;52.126;11.616;2023-07-22T14:39:02;24.80;36.50
18365;DHT22;9309;52.126;11.616;2023-07-22T14:41:30;24.20;37.70
18365;DHT22;9309;52.126;11.616;2023-07-22T14:43:57;23.90;38.30
18365;DHT22;9309;52.126;11.616;2023-07-22T14:46:24;23.30;38.80
18365;DHT22;9309;52.126;11.616;2023-07-22T14:48:51;23.30;39.00
18365;DHT22;9309;52.126;11.616;2023-07-22T14:51:17;23.40;39.50
18365;DHT22;9309;52.126;11.616;2023-07-22T14:53:44;23.20;40.00
18365;DHT22;9309;52.126;11.616;2023-07-22T14:56:11;23.10;39.80
18365;DHT22;9309;52.126;11.616;2023-07-22T14:58:39;23.00;40.30
18365;DHT22;9309;52.126;11.616;2023-07-22T15:01:07;23.40;39.70
18365;DHT22;9309;52.126;11.616;2023-07-22T15:03:34;23.50;39.70
18365;DHT22;9309;52.126;11.616;2023-07-22T15:06:01;23.50;39.50
18365;DHT22;9309;52.126;11.616;2023-07-22T15:08:28;23.50;39.70
18365;DHT22;9309;52.126;11.616;2023-07-22T15:10:55;23.50;40.50
18365;DHT22;9309;52.126;11.616;2023-07-22T15:13:22;23.60;39.80
18365;DHT22;9309;52.126;11.616;2023-07-22T15:15:52;23.60;39.70
18365;DHT22;9309;52.126;11.616;2023-07-22T15:18:19;23.90;39.40
18365;DHT22;9309;52.126;11.616;2023-07-22T15:20:46;24.20;39.30
18365;DHT22;9309;52.126;11.616;2023-07-22T15:23:12;24.20;39.50
18365;DHT22;9309;52.126;11.616;2023-07-22T15:25:39;24.40;38.90
18365;DHT22;9309;52.126;11.616;2023-07-22T15:28:06;24.40;38.90
18365;DHT22;9309;52.126;11.616;2023-07-22T15:30:32;24.60;38.50
18365;DHT22;9309;52.126;11.616;2023-07-22T15:33:00;24.80;37.90